sensor_id;sensor_type;location;lat;lon;timestamp;P1;durP1;ratioP1;P2;durP2;ratioP2
26277;SDS011;14000;52.056;8.510;2023-09-18T00:02:20;15.17;;;6.77;;
26277;SDS011;14000;52.056;8.510;2023-09-18T00:04:45;14.10;;;6.50;;
26277;SDS011;14000;52.056;8.510;2023-09-18T00:07:11;13.27;;;6.33;;
26277;SDS011;14000;52.056;8.510;2023-09-18T00:09:36;12.93;;;6.40;;
26277;SDS011;14000;52.056;8.510;2023-09-18T00:12:02;15.07;;;6.67;;
26277;SDS011;14000;52.056;8.510;2023-09-18T00:14:28;15.90;;;6.50;;
26277;SDS011;14000;52.056;8.510;2023-09-18T00:16:54;15.47;;;7.37;;
26277;SDS011;14000;52.056;8.510;2023-09-18T00:19:22;13.33;;;6.57;;
26277;SDS011;14000;52.056;8.510;2023-09-18T00:21:48;13.97;;;6.67;;
26277;SDS011;14000;52.056;8.510;2023-09-18T00:24:14;13.80;;;6.80;;
26277;SDS011;14000;52.056;8.510;2023-09-18T00:26:39;14.17;;;7.50;;
26277;SDS011;14000;52.056;8.510;2023-09-18T00:29:05;13.23;;;7.70;;
26277;SDS011;14000;52.056;8.510;2023-09-18T00:31:31;14.53;;;7.60;;
26277;SDS011;14000;52.056;8.510;2023-09-18T00:33:56;12.93;;;6.47;;
26277;SDS011;14000;52.056;8.510;2023-09-18T00:36:22;12.83;;;7.00;;
26277;SDS011;14000;52.056;8.510;2023-09-18T00:38:48;17.20;;;8.03;;
26277;SDS011;14000;52.056;8.510;2023-09-18T00:41:13;16.40;;;7.33;;
26277;SDS011;14000;52.056;8.510;2023-09-18T00:43:39;14.07;;;7.10;;
26277;SDS011;14000;52.056;8.510;2023-09-18T00:46:04;14.23;;;7.50;;
26277;SDS011;14000;52.056;8.510;2023-09-18T00:48:30;18.80;;;8.23;;
26277;SDS011;14000;52.056;8.510;2023-09-18T00:50:56;17.67;;;8.20;;
26277;SDS011;14000;52.056;8.510;2023-09-18T00:53:22;15.60;;;6.90;;
26277;SDS011;14000;52.056;8.510;2023-09-18T00:55:50;15.60;;;8.70;;
26277;SDS011;14000;52.056;8.510;2023-09-18T00:58:18;17.70;;;8.70;;
26277;SDS011;14000;52.056;8.510;2023-09-18T01:00:44;17.57;;;8.67;;
26277;SDS011;14000;52.056;8.510;2023-09-18T01:03:10;15.77;;;7.97;;
26277;SDS011;14000;52.056;8.510;2023-09-18T01:05:36;17.73;;;8.37;;
26277;SDS011;14000;52.056;8.510;2023-09-18T01:08:01;16.00;;;8.07;;
26277;SDS011;14000;52.056;8.510;2023-09-18T01:10:34;18.30;;;7.80;;
26277;SDS011;14000;52.056;8.510;2023-09-18T01:13:10;18.43;;;9.33;;
26277;SDS011;14000;52.056;8.510;2023-09-18T01:15:47;19.40;;;9.53;;
26277;SDS011;14000;52.056;8.510;2023-09-18T01:18:17;13.90;;;8.50;;
26277;SDS011;14000;52.056;8.510;2023-09-18T01:20:43;16.87;;;9.10;;
26277;SDS011;14000;52.056;8.510;2023-09-18T01:23:09;15.80;;;8.10;;
26277;SDS011;14000;52.056;8.510;2023-09-18T01:25:36;15.10;;;8.30;;
26277;SDS011;14000;52.056;8.510;2023-09-18T01:28:02;16.30;;;8.13;;
26277;SDS011;14000;52.056;8.510;2023-09-18T01:30:28;16.17;;;9.27;;
26277;SDS011;14000;52.056;8.510;2023-09-18T01:32:54;20.67;;;10.20;;
26277;SDS011;14000;52.056;8.510;2023-09-18T01:35:22;15.03;;;8.00;;
26277;SDS011;14000;52.056;8.510;2023-09-18T01:37:54;17.23;;;9.93;;
26277;SDS011;14000;52.056;8.510;2023-09-18T01:40:21;19.63;;;10.57;;
26277;SDS011;14000;52.056;8.510;2023-09-18T01:42:48;14.63;;;8.20;;
26277;SDS011;14000;52.056;8.510;2023-09-18T01:45:14;18.10;;;8.90;;
26277;SDS011;14000;52.056;8.510;2023-09-18T01:47:39;19.07;;;8.37;;
26277;SDS011;14000;52.056;8.510;2023-09-18T01:50:05;15.33;;;8.63;;
26277;SDS011;14000;52.056;8.510;2023-09-18T01:52:31;20.90;;;9.00;;
26277;SDS011;14000;52.056;8.510;2023-09-18T01:54:56;14.47;;;8.63;;
26277;SDS011;14000;52.056;8.510;2023-09-18T01:57:22;18.33;;;8.93;;
26277;SDS011;14000;52.056;8.510;2023-09-18T01:59:48;18.07;;;9.13;;
26277;SDS011;14000;52.056;8.510;2023-09-18T02:02:13;16.90;;;9.23;;
26277;SDS011;14000;52.056;8.510;2023-09-18T02:04:40;17.90;;;8.57;;
26277;SDS011;14000;52.056;8.510;2023-09-18T02:07:06;15.10;;;8.63;;
26277;SDS011;14000;52.056;8.510;2023-09-18T02:09:32;14.90;;;8.27;;
26277;SDS011;14000;52.056;8.510;2023-09-18T02:11:58;15.87;;;9.57;;
26277;SDS011;14000;52.056;8.510;2023-09-18T02:14:23;17.07;;;9.07;;
26277;SDS011;14000;52.056;8.510;2023-09-18T02:16:49;15.57;;;8.87;;
26277;SDS011;14000;52.056;8.510;2023-09-18T02:19:15;17.60;;;9.47;;
26277;SDS011;14000;52.056;8.510;2023-09-18T02:21:42;20.10;;;9.40;;
26277;SDS011;14000;52.056;8.510;2023-09-18T02:24:07;17.40;;;10.20;;
26277;SDS011;14000;52.056;8.510;2023-09-18T02:26:34;17.57;;;8.30;;
26277;SDS011;14000;52.056;8.510;2023-09-18T02:29:00;17.37;;;9.47;;
26277;SDS011;14000;52.056;8.510;2023-09-18T02:31:27;19.27;;;9.53;;
26277;SDS011;14000;52.056;8.510;2023-09-18T02:33:53;18.43;;;9.83;;
26277;SDS011;14000;52.056;8.510;2023-09-18T02:36:18;17.87;;;9.70;;
26277;SDS011;14000;52.056;8.510;2023-09-18T02:38:44;16.07;;;9.57;;
26277;SDS011;14000;52.056;8.510;2023-09-18T02:41:09;18.77;;;9.07;;
26277;SDS011;14000;52.056;8.510;2023-09-18T02:43:35;20.83;;;10.03;;
26277;SDS011;14000;52.056;8.510;2023-09-18T02:46:04;16.37;;;9.20;;
26277;SDS011;14000;52.056;8.510;2023-09-18T02:48:30;14.73;;;8.50;;
26277;SDS011;14000;52.056;8.510;2023-09-18T02:50:56;18.10;;;9.50;;
26277;SDS011;14000;52.056;8.510;2023-09-18T02:53:23;16.93;;;9.07;;
26277;SDS011;14000;52.056;8.510;2023-09-18T02:55:53;16.03;;;9.40;;
26277;SDS011;14000;52.056;8.510;2023-09-18T02:58:19;17.00;;;8.43;;
26277;SDS011;14000;52.056;8.510;2023-09-18T03:00:46;18.10;;;8.70;;
26277;SDS011;14000;52.056;8.510;2023-09-18T03:03:13;18.80;;;8.80;;
26277;SDS011;14000;52.056;8.510;2023-09-18T03:05:39;13.43;;;7.53;;
26277;SDS011;14000;52.056;8.510;2023-09-18T03:08:06;17.80;;;8.23;;
26277;SDS011;14000;52.056;8.510;2023-09-18T03:10:33;15.10;;;8.40;;
26277;SDS011;14000;52.056;8.510;2023-09-18T03:12:59;14.50;;;8.47;;
26277;SDS011;14000;52.056;8.510;2023-09-18T03:15:28;16.73;;;9.53;;
26277;SDS011;14000;52.056;8.510;2023-09-18T03:17:54;19.63;;;9.10;;
26277;SDS011;14000;52.056;8.510;2023-09-18T03:20:23;16.07;;;8.70;;
26277;SDS011;14000;52.056;8.510;2023-09-18T03:22:53;17.27;;;9.50;;
26277;SDS011;14000;52.056;8.510;2023-09-18T03:25:20;22.33;;;10.47;;
26277;SDS011;14000;52.056;8.510;2023-09-18T03:27:47;19.77;;;9.70;;
26277;SDS011;14000;52.056;8.510;2023-09-18T03:30:13;17.90;;;8.90;;
26277;SDS011;14000;52.056;8.510;2023-09-18T03:32:41;17.60;;;10.03;;
26277;SDS011;14000;52.056;8.510;2023-09-18T03:35:07;15.33;;;9.37;;
26277;SDS011;14000;52.056;8.510;2023-09-18T03:37:40;17.30;;;10.80;;
26277;SDS011;14000;52.056;8.510;2023-09-18T03:40:06;19.03;;;9.40;;
26277;SDS011;14000;52.056;8.510;2023-09-18T03:42:33;17.60;;;9.20;;
26277;SDS011;14000;52.056;8.510;2023-09-18T03:44:59;15.83;;;9.00;;
26277;SDS011;14000;52.056;8.510;2023-09-18T03:47:24;23.10;;;11.73;;
26277;SDS011;14000;52.056;8.510;2023-09-18T03:49:50;16.40;;;9.77;;
26277;SDS011;14000;52.056;8.510;2023-09-18T03:52:16;21.33;;;11.50;;
26277;SDS011;14000;52.056;8.510;2023-09-18T03:54:41;16.03;;;9.17;;
26277;SDS011;14000;52.056;8.510;2023-09-18T03:57:07;16.40;;;9.80;;
26277;SDS011;14000;52.056;8.510;2023-09-18T03:59:33;20.67;;;11.90;;
26277;SDS011;14000;52.056;8.510;2023-09-18T04:01:58;21.30;;;11.40;;
26277;SDS011;14000;52.056;8.510;2023-09-18T04:04:24;17.10;;;9.50;;
26277;SDS011;14000;52.056;8.510;2023-09-18T04:06:49;20.83;;;11.60;;
26277;SDS011;14000;52.056;8.510;2023-09-18T04:09:15;17.87;;;9.93;;
26277;SDS011;14000;52.056;8.510;2023-09-18T04:11:40;19.57;;;11.90;;
26277;SDS011;14000;52.056;8.510;2023-09-18T04:14:06;16.87;;;10.30;;
26277;SDS011;14000;52.056;8.510;2023-09-18T04:16:32;19.47;;;10.47;;
26277;SDS011;14000;52.056;8.510;2023-09-18T04:19:00;18.17;;;9.40;;
26277;SDS011;14000;52.056;8.510;2023-09-18T04:21:26;17.93;;;10.20;;
26277;SDS011;14000;52.056;8.510;2023-09-18T04:23:52;18.40;;;10.30;;
26277;SDS011;14000;52.056;8.510;2023-09-18T04:26:22;15.73;;;9.43;;
26277;SDS011;14000;52.056;8.510;2023-09-18T04:28:48;15.93;;;10.00;;
26277;SDS011;14000;52.056;8.510;2023-09-18T04:31:14;20.63;;;10.30;;
26277;SDS011;14000;52.056;8.510;2023-09-18T04:33:39;15.40;;;8.77;;
26277;SDS011;14000;52.056;8.510;2023-09-18T04:36:05;17.17;;;10.33;;
26277;SDS011;14000;52.056;8.510;2023-09-18T04:38:31;15.70;;;9.13;;
26277;SDS011;14000;52.056;8.510;2023-09-18T04:41:01;17.57;;;9.90;;
26277;SDS011;14000;52.056;8.510;2023-09-18T04:43:26;21.83;;;10.57;;
26277;SDS011;14000;52.056;8.510;2023-09-18T04:45:54;16.23;;;9.13;;
26277;SDS011;14000;52.056;8.510;2023-09-18T04:48:20;15.30;;;8.53;;
26277;SDS011;14000;52.056;8.510;2023-09-18T04:50:46;18.20;;;9.67;;
26277;SDS011;14000;52.056;8.510;2023-09-18T04:53:12;22.53;;;9.70;;
26277;SDS011;14000;52.056;8.510;2023-09-18T04:55:38;16.63;;;9.27;;
26277;SDS011;14000;52.056;8.510;2023-09-18T04:58:03;18.17;;;9.10;;
26277;SDS011;14000;52.056;8.510;2023-09-18T05:00:29;17.87;;;8.50;;
26277;SDS011;14000;52.056;8.510;2023-09-18T05:02:56;14.97;;;6.60;;
26277;SDS011;14000;52.056;8.510;2023-09-18T05:05:25;14.30;;;6.53;;
26277;SDS011;14000;52.056;8.510;2023-09-18T05:07:51;12.27;;;6.07;;
26277;SDS011;14000;52.056;8.510;2023-09-18T05:10:16;13.73;;;6.20;;
26277;SDS011;14000;52.056;8.510;2023-09-18T05:12:42;12.03;;;5.60;;
26277;SDS011;14000;52.056;8.510;2023-09-18T05:15:08;12.17;;;5.60;;
26277;SDS011;14000;52.056;8.510;2023-09-18T05:17:43;11.83;;;5.80;;
26277;SDS011;14000;52.056;8.510;2023-09-18T05:20:11;14.57;;;6.20;;
26277;SDS011;14000;52.056;8.510;2023-09-18T05:22:38;12.07;;;5.73;;
26277;SDS011;14000;52.056;8.510;2023-09-18T05:25:05;13.13;;;5.50;;
26277;SDS011;14000;52.056;8.510;2023-09-18T05:27:31;11.20;;;5.60;;
26277;SDS011;14000;52.056;8.510;2023-09-18T05:29:57;15.10;;;6.57;;
26277;SDS011;14000;52.056;8.510;2023-09-18T05:32:23;11.97;;;6.50;;
26277;SDS011;14000;52.056;8.510;2023-09-18T05:34:48;11.23;;;5.60;;
26277;SDS011;14000;52.056;8.510;2023-09-18T05:37:14;15.00;;;5.40;;
26277;SDS011;14000;52.056;8.510;2023-09-18T05:39:40;12.23;;;6.00;;
26277;SDS011;14000;52.056;8.510;2023-09-18T05:42:06;11.13;;;5.70;;
26277;SDS011;14000;52.056;8.510;2023-09-18T05:44:31;12.40;;;6.30;;
26277;SDS011;14000;52.056;8.510;2023-09-18T05:46:58;14.53;;;6.80;;
26277;SDS011;14000;52.056;8.510;2023-09-18T05:49:23;11.27;;;5.90;;
26277;SDS011;14000;52.056;8.510;2023-09-18T05:51:49;11.43;;;5.97;;
26277;SDS011;14000;52.056;8.510;2023-09-18T05:54:15;12.97;;;6.20;;
26277;SDS011;14000;52.056;8.510;2023-09-18T05:56:40;11.93;;;6.00;;
26277;SDS011;14000;52.056;8.510;2023-09-18T05:59:06;12.20;;;6.00;;
26277;SDS011;14000;52.056;8.510;2023-09-18T06:01:32;12.30;;;6.23;;
26277;SDS011;14000;52.056;8.510;2023-09-18T06:03:58;11.60;;;5.33;;
26277;SDS011;14000;52.056;8.510;2023-09-18T06:06:23;12.07;;;5.43;;
26277;SDS011;14000;52.056;8.510;2023-09-18T06:08:50;13.17;;;5.57;;
26277;SDS011;14000;52.056;8.510;2023-09-18T06:11:18;12.60;;;5.47;;
26277;SDS011;14000;52.056;8.510;2023-09-18T06:13:44;14.27;;;5.80;;
26277;SDS011;14000;52.056;8.510;2023-09-18T06:16:10;12.93;;;5.30;;
26277;SDS011;14000;52.056;8.510;2023-09-18T06:18:35;12.20;;;5.67;;
26277;SDS011;14000;52.056;8.510;2023-09-18T06:21:03;12.63;;;4.87;;
26277;SDS011;14000;52.056;8.510;2023-09-18T06:23:29;14.13;;;5.87;;
26277;SDS011;14000;52.056;8.510;2023-09-18T06:25:55;11.70;;;5.07;;
26277;SDS011;14000;52.056;8.510;2023-09-18T06:28:21;11.47;;;4.80;;
26277;SDS011;14000;52.056;8.510;2023-09-18T06:30:48;10.87;;;4.97;;
26277;SDS011;14000;52.056;8.510;2023-09-18T06:33:13;12.90;;;4.83;;
26277;SDS011;14000;52.056;8.510;2023-09-18T06:35:39;12.50;;;4.77;;
26277;SDS011;14000;52.056;8.510;2023-09-18T06:38:05;14.47;;;5.07;;
26277;SDS011;14000;52.056;8.510;2023-09-18T06:40:31;15.13;;;5.60;;
26277;SDS011;14000;52.056;8.510;2023-09-18T06:43:00;12.43;;;4.97;;
26277;SDS011;14000;52.056;8.510;2023-09-18T06:45:26;12.63;;;4.97;;
26277;SDS011;14000;52.056;8.510;2023-09-18T06:47:52;12.37;;;4.90;;
26277;SDS011;14000;52.056;8.510;2023-09-18T06:50:18;12.37;;;4.73;;
26277;SDS011;14000;52.056;8.510;2023-09-18T06:52:44;11.97;;;4.93;;
26277;SDS011;14000;52.056;8.510;2023-09-18T06:55:10;11.73;;;5.03;;
26277;SDS011;14000;52.056;8.510;2023-09-18T06:57:36;13.30;;;4.90;;
26277;SDS011;14000;52.056;8.510;2023-09-18T07:00:02;13.27;;;4.73;;
26277;SDS011;14000;52.056;8.510;2023-09-18T07:02:30;12.10;;;4.73;;
26277;SDS011;14000;52.056;8.510;2023-09-18T07:04:55;11.43;;;4.83;;
26277;SDS011;14000;52.056;8.510;2023-09-18T07:07:21;10.80;;;4.57;;
26277;SDS011;14000;52.056;8.510;2023-09-18T07:09:50;11.20;;;4.40;;
26277;SDS011;14000;52.056;8.510;2023-09-18T07:12:16;12.70;;;4.83;;
26277;SDS011;14000;52.056;8.510;2023-09-18T07:14:44;13.60;;;4.60;;
26277;SDS011;14000;52.056;8.510;2023-09-18T07:17:10;13.53;;;4.60;;
26277;SDS011;14000;52.056;8.510;2023-09-18T07:19:36;11.80;;;4.63;;
26277;SDS011;14000;52.056;8.510;2023-09-18T07:22:02;10.40;;;4.33;;
26277;SDS011;14000;52.056;8.510;2023-09-18T07:24:28;12.47;;;4.70;;
26277;SDS011;14000;52.056;8.510;2023-09-18T07:26:53;12.47;;;4.30;;
26277;SDS011;14000;52.056;8.510;2023-09-18T07:29:20;15.53;;;4.87;;
26277;SDS011;14000;52.056;8.510;2023-09-18T07:31:46;12.33;;;4.40;;
26277;SDS011;14000;52.056;8.510;2023-09-18T07:34:12;12.00;;;4.03;;
26277;SDS011;14000;52.056;8.510;2023-09-18T07:36:39;14.23;;;4.20;;
26277;SDS011;14000;52.056;8.510;2023-09-18T07:39:05;12.43;;;3.97;;
26277;SDS011;14000;52.056;8.510;2023-09-18T07:41:31;14.30;;;3.97;;
26277;SDS011;14000;52.056;8.510;2023-09-18T07:43:57;10.73;;;3.77;;
26277;SDS011;14000;52.056;8.510;2023-09-18T07:46:24;14.47;;;3.80;;
26277;SDS011;14000;52.056;8.510;2023-09-18T07:48:49;11.07;;;3.57;;
26277;SDS011;14000;52.056;8.510;2023-09-18T07:51:15;12.83;;;3.70;;
26277;SDS011;14000;52.056;8.510;2023-09-18T07:53:41;12.80;;;3.73;;
26277;SDS011;14000;52.056;8.510;2023-09-18T07:56:08;11.47;;;2.97;;
26277;SDS011;14000;52.056;8.510;2023-09-18T07:58:34;15.70;;;3.50;;
26277;SDS011;14000;52.056;8.510;2023-09-18T08:01:03;12.43;;;3.10;;
26277;SDS011;14000;52.056;8.510;2023-09-18T08:03:31;13.53;;;3.37;;
26277;SDS011;14000;52.056;8.510;2023-09-18T08:05:57;11.23;;;4.30;;
26277;SDS011;14000;52.056;8.510;2023-09-18T08:08:23;10.07;;;2.70;;
26277;SDS011;14000;52.056;8.510;2023-09-18T08:10:50;12.60;;;3.00;;
26277;SDS011;14000;52.056;8.510;2023-09-18T08:13:16;12.03;;;2.83;;
26277;SDS011;14000;52.056;8.510;2023-09-18T08:15:42;11.37;;;2.73;;
26277;SDS011;14000;52.056;8.510;2023-09-18T08:18:08;10.90;;;2.30;;
26277;SDS011;14000;52.056;8.510;2023-09-18T08:20:35;14.27;;;2.67;;
26277;SDS011;14000;52.056;8.510;2023-09-18T08:23:02;11.33;;;2.70;;
26277;SDS011;14000;52.056;8.510;2023-09-18T08:25:30;13.47;;;2.60;;
26277;SDS011;14000;52.056;8.510;2023-09-18T08:27:56;11.13;;;2.73;;
26277;SDS011;14000;52.056;8.510;2023-09-18T08:30:21;10.30;;;2.40;;
26277;SDS011;14000;52.056;8.510;2023-09-18T08:32:47;9.37;;;2.30;;
26277;SDS011;14000;52.056;8.510;2023-09-18T08:35:13;8.93;;;2.17;;
26277;SDS011;14000;52.056;8.510;2023-09-18T08:37:42;10.00;;;2.13;;
26277;SDS011;14000;52.056;8.510;2023-09-18T08:40:11;10.53;;;2.40;;
26277;SDS011;14000;52.056;8.510;2023-09-18T08:42:39;12.17;;;2.40;;
26277;SDS011;14000;52.056;8.510;2023-09-18T08:45:13;11.50;;;2.23;;
26277;SDS011;14000;52.056;8.510;2023-09-18T08:47:44;10.17;;;2.67;;
26277;SDS011;14000;52.056;8.510;2023-09-18T08:50:10;11.33;;;2.53;;
26277;SDS011;14000;52.056;8.510;2023-09-18T08:52:37;10.20;;;2.37;;
26277;SDS011;14000;52.056;8.510;2023-09-18T08:55:04;11.00;;;2.20;;
26277;SDS011;14000;52.056;8.510;2023-09-18T08:57:30;9.63;;;2.17;;
26277;SDS011;14000;52.056;8.510;2023-09-18T08:59:57;9.87;;;2.30;;
26277;SDS011;14000;52.056;8.510;2023-09-18T09:02:26;13.43;;;2.70;;
26277;SDS011;14000;52.056;8.510;2023-09-18T09:04:51;8.93;;;1.97;;
26277;SDS011;14000;52.056;8.510;2023-09-18T09:07:17;9.73;;;2.00;;
26277;SDS011;14000;52.056;8.510;2023-09-18T09:09:43;11.17;;;2.40;;
26277;SDS011;14000;52.056;8.510;2023-09-18T09:12:08;7.90;;;2.40;;
26277;SDS011;14000;52.056;8.510;2023-09-18T09:14:34;9.03;;;2.10;;
26277;SDS011;14000;52.056;8.510;2023-09-18T09:17:00;17.20;;;4.70;;
26277;SDS011;14000;52.056;8.510;2023-09-18T09:21:58;9.63;;;2.80;;
26277;SDS011;14000;52.056;8.510;2023-09-18T09:24:40;10.77;;;2.57;;
26277;SDS011;14000;52.056;8.510;2023-09-18T09:27:07;9.93;;;2.00;;
26277;SDS011;14000;52.056;8.510;2023-09-18T09:29:33;10.80;;;2.50;;
26277;SDS011;14000;52.056;8.510;2023-09-18T09:32:12;10.57;;;1.97;;
26277;SDS011;14000;52.056;8.510;2023-09-18T09:34:42;9.57;;;2.17;;
26277;SDS011;14000;52.056;8.510;2023-09-18T09:37:08;10.90;;;2.53;;
26277;SDS011;14000;52.056;8.510;2023-09-18T09:39:45;9.97;;;1.90;;
26277;SDS011;14000;52.056;8.510;2023-09-18T09:42:16;10.73;;;1.83;;
26277;SDS011;14000;52.056;8.510;2023-09-18T09:45:00;9.83;;;2.27;;
26277;SDS011;14000;52.056;8.510;2023-09-18T09:47:31;9.73;;;1.97;;
26277;SDS011;14000;52.056;8.510;2023-09-18T09:50:05;10.60;;;2.00;;
26277;SDS011;14000;52.056;8.510;2023-09-18T09:52:42;8.27;;;2.17;;
26277;SDS011;14000;52.056;8.510;2023-09-18T09:57:49;12.97;;;2.20;;
26277;SDS011;14000;52.056;8.510;2023-09-18T10:00:16;11.37;;;2.10;;
26277;SDS011;14000;52.056;8.510;2023-09-18T10:03:01;9.80;;;2.00;;
26277;SDS011;14000;52.056;8.510;2023-09-18T10:05:34;8.77;;;1.90;;
26277;SDS011;14000;52.056;8.510;2023-09-18T10:08:07;8.27;;;2.00;;
26277;SDS011;14000;52.056;8.510;2023-09-18T10:11:01;12.83;;;3.90;;
26277;SDS011;14000;52.056;8.510;2023-09-18T10:13:32;10.40;;;2.67;;
26277;SDS011;14000;52.056;8.510;2023-09-18T10:16:17;13.73;;;3.23;;
26277;SDS011;14000;52.056;8.510;2023-09-18T10:21:41;13.23;;;2.10;;
26277;SDS011;14000;52.056;8.510;2023-09-18T10:24:23;10.87;;;2.40;;
26277;SDS011;14000;52.056;8.510;2023-09-18T10:26:51;9.63;;;1.70;;
26277;SDS011;14000;52.056;8.510;2023-09-18T10:29:29;12.57;;;2.17;;
26277;SDS011;14000;52.056;8.510;2023-09-18T10:31:57;10.07;;;2.13;;
26277;SDS011;14000;52.056;8.510;2023-09-18T10:34:24;9.13;;;2.60;;
26277;SDS011;14000;52.056;8.510;2023-09-18T10:36:50;9.80;;;2.50;;
26277;SDS011;14000;52.056;8.510;2023-09-18T10:39:18;9.33;;;2.00;;
26277;SDS011;14000;52.056;8.510;2023-09-18T10:41:47;13.63;;;2.40;;
26277;SDS011;14000;52.056;8.510;2023-09-18T10:44:16;9.40;;;1.90;;
26277;SDS011;14000;52.056;8.510;2023-09-18T10:46:53;8.70;;;2.27;;
26277;SDS011;14000;52.056;8.510;2023-09-18T10:49:20;8.17;;;1.80;;
26277;SDS011;14000;52.056;8.510;2023-09-18T10:51:47;9.27;;;2.10;;
26277;SDS011;14000;52.056;8.510;2023-09-18T10:54:17;7.77;;;1.70;;
26277;SDS011;14000;52.056;8.510;2023-09-18T10:56:46;9.20;;;2.53;;
26277;SDS011;14000;52.056;8.510;2023-09-18T10:59:13;9.60;;;2.33;;
26277;SDS011;14000;52.056;8.510;2023-09-18T11:01:39;8.53;;;2.20;;
26277;SDS011;14000;52.056;8.510;2023-09-18T11:04:06;11.17;;;3.10;;
26277;SDS011;14000;52.056;8.510;2023-09-18T11:09:24;8.87;;;2.10;;
26277;SDS011;14000;52.056;8.510;2023-09-18T11:17:30;8.87;;;2.00;;
26277;SDS011;14000;52.056;8.510;2023-09-18T11:22:37;7.40;;;2.00;;
26277;SDS011;14000;52.056;8.510;2023-09-18T11:27:59;8.63;;;1.93;;
26277;SDS011;14000;52.056;8.510;2023-09-18T11:30:27;10.17;;;1.97;;
26277;SDS011;14000;52.056;8.510;2023-09-18T11:32:53;8.17;;;1.63;;
26277;SDS011;14000;52.056;8.510;2023-09-18T11:35:20;9.47;;;2.00;;
26277;SDS011;14000;52.056;8.510;2023-09-18T11:37:46;9.60;;;2.00;;
26277;SDS011;14000;52.056;8.510;2023-09-18T11:40:31;8.37;;;2.00;;
26277;SDS011;14000;52.056;8.510;2023-09-18T11:45:57;9.60;;;2.10;;
26277;SDS011;14000;52.056;8.510;2023-09-18T11:48:25;9.07;;;2.23;;
26277;SDS011;14000;52.056;8.510;2023-09-18T11:50:54;6.47;;;1.47;;
26277;SDS011;14000;52.056;8.510;2023-09-18T11:53:26;7.40;;;1.53;;
26277;SDS011;14000;52.056;8.510;2023-09-18T11:55:53;6.97;;;1.40;;
26277;SDS011;14000;52.056;8.510;2023-09-18T11:58:18;7.70;;;1.70;;
26277;SDS011;14000;52.056;8.510;2023-09-18T12:00:48;7.63;;;1.30;;
26277;SDS011;14000;52.056;8.510;2023-09-18T12:03:18;9.27;;;2.20;;
26277;SDS011;14000;52.056;8.510;2023-09-18T12:05:52;8.70;;;1.70;;
26277;SDS011;14000;52.056;8.510;2023-09-18T12:08:23;8.20;;;1.47;;
26277;SDS011;14000;52.056;8.510;2023-09-18T12:10:53;7.53;;;1.60;;
26277;SDS011;14000;52.056;8.510;2023-09-18T12:13:19;6.47;;;1.50;;
26277;SDS011;14000;52.056;8.510;2023-09-18T12:15:45;5.80;;;1.60;;
26277;SDS011;14000;52.056;8.510;2023-09-18T12:18:13;7.00;;;1.90;;
26277;SDS011;14000;52.056;8.510;2023-09-18T12:20:49;6.80;;;1.80;;
26277;SDS011;14000;52.056;8.510;2023-09-18T12:23:17;7.90;;;1.70;;
26277;SDS011;14000;52.056;8.510;2023-09-18T12:25:46;6.77;;;1.70;;
26277;SDS011;14000;52.056;8.510;2023-09-18T12:28:14;7.20;;;1.70;;
26277;SDS011;14000;52.056;8.510;2023-09-18T12:30:41;9.43;;;1.77;;
26277;SDS011;14000;52.056;8.510;2023-09-18T12:33:11;6.67;;;1.60;;
26277;SDS011;14000;52.056;8.510;2023-09-18T12:35:40;8.80;;;1.80;;
26277;SDS011;14000;52.056;8.510;2023-09-18T12:38:15;6.40;;;1.57;;
26277;SDS011;14000;52.056;8.510;2023-09-18T12:40:43;6.43;;;1.70;;
26277;SDS011;14000;52.056;8.510;2023-09-18T12:43:11;5.27;;;1.43;;
26277;SDS011;14000;52.056;8.510;2023-09-18T12:45:37;6.03;;;1.33;;
26277;SDS011;14000;52.056;8.510;2023-09-18T12:48:03;7.43;;;1.60;;
26277;SDS011;14000;52.056;8.510;2023-09-18T12:50:30;8.10;;;1.67;;
26277;SDS011;14000;52.056;8.510;2023-09-18T12:53:09;7.00;;;1.70;;
26277;SDS011;14000;52.056;8.510;2023-09-18T12:55:39;6.23;;;1.50;;
26277;SDS011;14000;52.056;8.510;2023-09-18T12:58:05;7.70;;;1.57;;
26277;SDS011;14000;52.056;8.510;2023-09-18T13:00:33;5.57;;;1.50;;
26277;SDS011;14000;52.056;8.510;2023-09-18T13:02:59;5.67;;;1.57;;
26277;SDS011;14000;52.056;8.510;2023-09-18T13:05:25;7.20;;;1.40;;
26277;SDS011;14000;52.056;8.510;2023-09-18T13:07:52;9.07;;;1.70;;
26277;SDS011;14000;52.056;8.510;2023-09-18T13:10:19;7.23;;;1.50;;
26277;SDS011;14000;52.056;8.510;2023-09-18T13:12:47;6.57;;;1.53;;
26277;SDS011;14000;52.056;8.510;2023-09-18T13:15:25;9.87;;;1.63;;
26277;SDS011;14000;52.056;8.510;2023-09-18T13:17:55;6.63;;;1.50;;
26277;SDS011;14000;52.056;8.510;2023-09-18T13:20:22;6.00;;;1.37;;
26277;SDS011;14000;52.056;8.510;2023-09-18T13:22:52;8.57;;;2.00;;
26277;SDS011;14000;52.056;8.510;2023-09-18T13:25:20;7.63;;;1.63;;
26277;SDS011;14000;52.056;8.510;2023-09-18T13:27:47;6.57;;;1.60;;
26277;SDS011;14000;52.056;8.510;2023-09-18T13:30:14;6.47;;;1.60;;
26277;SDS011;14000;52.056;8.510;2023-09-18T13:32:43;8.93;;;1.60;;
26277;SDS011;14000;52.056;8.510;2023-09-18T13:35:09;5.90;;;1.40;;
26277;SDS011;14000;52.056;8.510;2023-09-18T13:37:38;7.07;;;1.63;;
26277;SDS011;14000;52.056;8.510;2023-09-18T13:40:05;7.53;;;1.80;;
26277;SDS011;14000;52.056;8.510;2023-09-18T13:42:34;7.27;;;1.60;;
26277;SDS011;14000;52.056;8.510;2023-09-18T13:45:00;7.83;;;1.90;;
26277;SDS011;14000;52.056;8.510;2023-09-18T13:47:26;7.73;;;1.60;;
26277;SDS011;14000;52.056;8.510;2023-09-18T13:49:53;8.60;;;1.63;;
26277;SDS011;14000;52.056;8.510;2023-09-18T13:52:21;10.93;;;2.47;;
26277;SDS011;14000;52.056;8.510;2023-09-18T13:54:50;9.00;;;2.13;;
26277;SDS011;14000;52.056;8.510;2023-09-18T13:57:17;7.33;;;1.77;;
26277;SDS011;14000;52.056;8.510;2023-09-18T13:59:43;9.03;;;1.80;;
26277;SDS011;14000;52.056;8.510;2023-09-18T14:02:10;8.43;;;1.73;;
26277;SDS011;14000;52.056;8.510;2023-09-18T14:04:36;6.37;;;1.70;;
26277;SDS011;14000;52.056;8.510;2023-09-18T14:07:02;8.40;;;1.57;;
26277;SDS011;14000;52.056;8.510;2023-09-18T14:09:28;11.97;;;1.90;;
26277;SDS011;14000;52.056;8.510;2023-09-18T14:11:54;9.77;;;1.67;;
26277;SDS011;14000;52.056;8.510;2023-09-18T14:14:21;10.40;;;1.80;;
26277;SDS011;14000;52.056;8.510;2023-09-18T14:16:47;7.10;;;2.00;;
26277;SDS011;14000;52.056;8.510;2023-09-18T14:19:15;7.67;;;1.80;;
26277;SDS011;14000;52.056;8.510;2023-09-18T14:21:41;7.60;;;1.63;;
26277;SDS011;14000;52.056;8.510;2023-09-18T14:24:06;8.00;;;2.00;;
26277;SDS011;14000;52.056;8.510;2023-09-18T14:26:33;8.87;;;2.23;;
26277;SDS011;14000;52.056;8.510;2023-09-18T14:29:05;8.07;;;2.00;;
26277;SDS011;14000;52.056;8.510;2023-09-18T14:31:34;9.37;;;1.70;;
26277;SDS011;14000;52.056;8.510;2023-09-18T14:34:01;12.83;;;3.00;;
26277;SDS011;14000;52.056;8.510;2023-09-18T14:36:26;11.43;;;2.50;;
26277;SDS011;14000;52.056;8.510;2023-09-18T14:38:52;8.10;;;2.40;;
26277;SDS011;14000;52.056;8.510;2023-09-18T14:41:20;9.23;;;2.60;;
26277;SDS011;14000;52.056;8.510;2023-09-18T14:43:46;10.50;;;2.70;;
26277;SDS011;14000;52.056;8.510;2023-09-18T14:46:12;9.77;;;2.50;;
26277;SDS011;14000;52.056;8.510;2023-09-18T14:48:38;11.30;;;2.77;;
26277;SDS011;14000;52.056;8.510;2023-09-18T14:51:04;8.50;;;2.40;;
26277;SDS011;14000;52.056;8.510;2023-09-18T14:53:30;9.50;;;2.40;;
26277;SDS011;14000;52.056;8.510;2023-09-18T14:55:55;7.13;;;2.10;;
26277;SDS011;14000;52.056;8.510;2023-09-18T14:58:21;9.87;;;2.73;;
26277;SDS011;14000;52.056;8.510;2023-09-18T15:00:48;13.13;;;3.90;;
26277;SDS011;14000;52.056;8.510;2023-09-18T15:03:14;11.73;;;2.50;;
26277;SDS011;14000;52.056;8.510;2023-09-18T15:05:40;10.23;;;2.30;;